Terminal Aerodrome Forecast
Issued by NWS

Home | Current Version | Previous Version | Text Only | Print | Product List | Glossary On
Versions: 1 2 3 4 5 6 7 8 9 10 11 12 13 14 15 16
000
FTUS42 TJSJ 291725
TAFIST
TAF
TIST 291725Z 2918/3018 11008KT P6SM VCSH SCT020 BKN050
     FM292300 11007KT P6SM FEW025 SCT100
     FM301330 13010KT P6SM VCSH SCT025 SCT040 BKN050=

USA.gov is the U.S. government's official web portal to all federal, state and local government web resources and services.